Time;durP1;ratioP1;P1;durP2;ratioP2;P2;SDS_P1;SDS_P2;PMS_P1;PMS_P2;Temp;Humidity;BMP_temperature;BMP_pressure;BME280_temperature;BME280_humidity;BME280_pressure;Samples;Min_cycle;Max_cycle;Signal;HPM_P1;HPM_P2
2023/03/03 00:00:21;;;;;;;54.22;27.27;;;;;;;-146.25;100.00;52347.91;2087803;28;33706;-66
2023/03/03 00:01:25;;;;;;;55.05;28.52;;;;;;;-146.25;100.00;52390.50;2088699;28;28005;-66
2023/03/03 00:02:27;;;;;;;56.33;27.00;;;;;;;-146.25;100.00;52384.41;2088221;28;39091;-65
2023/03/03 00:03:29;;;;;;;53.92;26.70;;;;;;;-146.25;100.00;52370.22;2087941;28;39174;-66
2023/03/03 00:04:31;;;;;;;57.17;28.25;;;;;;;-146.25;100.00;52378.34;2088196;28;34872;-66
2023/03/03 00:05:36;;;;;;;51.90;26.52;;;;;;;-146.25;100.00;52376.31;2087938;28;37053;-66
2023/03/03 00:06:40;;;;;;;59.95;29.80;;;;;;;-146.25;100.00;52372.25;2088885;28;20127;-66
2023/03/03 00:07:46;;;;;;;57.65;27.05;;;;;;;-146.25;100.00;52339.81;2093893;28;35741;-66
2023/03/03 00:08:48;;;;;;;56.88;27.48;;;;;;;-146.25;100.00;52380.38;2096608;28;36714;-66
2023/03/03 00:09:50;;;;;;;53.53;26.02;;;;;;;-146.25;100.00;52382.38;2096457;28;38003;-66
2023/03/03 00:10:54;;;;;;;64.15;29.00;;;;;;;-146.25;100.00;52402.66;2096395;28;38611;-66
2023/03/03 00:11:59;;;;;;;66.15;28.58;;;;;;;-146.25;100.00;52376.31;2096352;28;34865;-66
2023/03/03 00:13:01;;;;;;;64.03;29.30;;;;;;;-146.25;100.00;52392.53;2087280;28;35339;-66
2023/03/03 00:14:22;;;;;;;58.13;27.23;;;;;;;-146.25;100.00;52341.84;2088185;28;34391;-65
2023/03/03 00:15:25;;;;;;;63.08;29.35;;;;;;;-146.25;100.00;52404.69;2087429;28;37182;-66
2023/03/03 00:16:37;;;;;;;64.97;29.73;;;;;;;-146.25;100.00;52402.66;2090429;28;20087;-66
2023/03/03 00:17:38;;;;;;;60.67;28.45;;;;;;;-146.25;100.00;52392.53;2087298;28;38619;-66
2023/03/03 00:18:46;;;;;;;68.00;30.13;;;;;;;-146.25;100.00;52380.38;2081749;28;32879;-65
2023/03/03 00:19:49;;;;;;;58.33;27.80;;;;;;;-146.25;100.00;52374.28;2088013;28;35069;-66
2023/03/03 00:21:00;;;;;;;70.35;29.45;;;;;;;-146.25;100.00;52412.81;2087296;28;38703;-66
2023/03/03 00:22:21;;;;;;;61.15;27.73;;;;;;;-146.25;100.00;52356.03;2088012;28;36314;-66
2023/03/03 00:23:34;;;;;;;65.35;29.60;;;;;;;-146.25;100.00;52349.94;2088100;28;38279;-67
2023/03/03 00:24:37;;;;;;;63.00;28.77;;;;;;;-146.25;100.00;52356.03;2079560;28;32109;-66
2023/03/03 00:25:43;;;;;;;70.68;30.98;;;;;;;-146.25;100.00;52360.09;2081104;28;31431;-66
2023/03/03 00:26:54;;;;;;;66.80;28.38;;;;;;;-146.25;100.00;52364.13;2079399;28;36506;-66
2023/03/03 00:28:40;;;;;;;71.80;29.25;;;;;;;-146.25;100.00;52356.03;2074058;28;20054;-66
2023/03/03 00:29:49;;;;;;;72.13;29.05;;;;;;;-146.25;100.00;52351.97;2083142;28;20057;-66
2023/03/03 00:30:59;;;;;;;74.88;31.55;;;;;;;-146.25;100.00;52362.13;2071671;28;20085;-65
2023/03/03 00:32:13;;;;;;;79.72;32.10;;;;;;;-146.25;100.00;52384.41;2074731;28;20042;-66
2023/03/03 00:33:41;;;;;;;77.40;29.33;;;;;;;-146.25;100.00;52372.25;2088325;28;20065;-65
2023/03/03 00:34:43;;;;;;;75.82;29.92;;;;;;;-146.25;100.00;52416.84;2079818;28;20851;-66
2023/03/03 00:35:45;;;;;;;85.97;32.65;;;;;;;-146.25;100.00;52358.06;2082446;28;29743;-65
2023/03/03 00:36:52;;;;;;;78.35;30.88;;;;;;;-146.25;100.00;52374.28;2079975;28;20255;-65
2023/03/03 00:37:57;;;;;;;81.05;32.70;;;;;;;-146.25;100.00;52386.44;2080098;28;29396;-66
2023/03/03 00:39:36;;;;;;;83.63;31.52;;;;;;;-146.25;100.00;52392.53;2088129;28;20050;-64
2023/03/03 00:40:40;;;;;;;76.93;30.85;;;;;;;-146.25;100.00;52384.41;2088092;28;32910;-65
2023/03/03 00:41:41;;;;;;;80.10;31.02;;;;;;;-146.25;100.00;52376.31;2079708;28;20946;-65
2023/03/03 00:42:49;;;;;;;83.45;31.38;;;;;;;-146.25;100.00;52368.19;2079442;28;25005;-65
2023/03/03 00:43:52;;;;;;;76.05;30.70;;;;;;;-146.25;100.00;52394.56;2071099;28;29031;-66
2023/03/03 00:44:59;;;;;;;85.10;33.42;;;;;;;-146.25;100.00;52337.78;2063882;28;29566;-66
2023/03/03 00:46:01;;;;;;;81.88;32.10;;;;;;;-146.25;100.00;52390.50;2080259;28;20030;-66
2023/03/03 00:47:29;;;;;;;85.47;33.53;;;;;;;-146.25;100.00;52372.25;2088390;28;23294;-66
2023/03/03 00:48:37;;;;;;;77.97;30.33;;;;;;;-146.25;100.00;52376.31;2079548;28;20185;-65
2023/03/03 00:49:45;;;;;;;84.50;32.13;;;;;;;-146.25;100.00;52422.94;2080947;28;20057;-66
2023/03/03 00:50:47;;;;;;;79.28;32.15;;;;;;;-146.25;100.00;52368.19;2078977;28;30274;-65
2023/03/03 00:51:51;;;;;;;88.88;33.35;;;;;;;-146.25;100.00;52380.38;2080473;28;22441;-65
2023/03/03 00:53:12;;;;;;;84.30;32.65;;;;;;;-146.25;100.00;52437.13;2078705;28;36376;-65
2023/03/03 00:54:14;;;;;;;79.80;32.75;;;;;;;-146.25;100.00;52366.16;2082359;28;33798;-65
2023/03/03 00:55:16;;;;;;;85.70;32.33;;;;;;;-146.25;100.00;52447.28;2088268;28;31211;-66
2023/03/03 00:56:18;;;;;;;92.32;34.95;;;;;;;-146.25;100.00;52378.34;2079643;28;20056;-65
2023/03/03 00:57:20;;;;;;;91.97;35.85;;;;;;;-146.25;100.00;52412.81;2079289;28;27637;-66
2023/03/03 00:58:23;;;;;;;90.20;35.28;;;;;;;-146.25;100.00;52386.44;2088520;28;24036;-66
2023/03/03 00:59:25;;;;;;;90.22;33.10;;;;;;;-146.25;100.00;52418.88;2087895;28;20883;-66
2023/03/03 01:00:28;;;;;;;94.47;34.92;;;;;;;-146.25;100.00;52410.78;2079756;28;20034;-66
2023/03/03 01:01:32;;;;;;;87.85;33.47;;;;;;;-146.25;100.00;52370.22;2070890;28;28116;-66
2023/03/03 01:02:33;;;;;;;85.05;31.52;;;;;;;-146.25;100.00;52400.63;2079698;28;20042;-65
2023/03/03 01:03:35;;;;;;;83.20;33.05;;;;;;;-146.25;100.00;52364.13;2088268;28;20848;-66
2023/03/03 01:04:39;;;;;;;78.65;29.88;;;;;;;-146.25;100.00;52362.13;2088272;28;28680;-65
2023/03/03 01:05:41;;;;;;;86.32;33.20;;;;;;;-146.25;100.00;52392.53;2088285;28;20045;-65
2023/03/03 01:06:46;;;;;;;87.75;34.50;;;;;;;-146.25;100.00;52400.63;2088228;28;29939;-66
2023/03/03 01:07:50;;;;;;;84.28;31.92;;;;;;;-146.25;100.00;52400.63;2079095;28;32957;-65
2023/03/03 01:08:53;;;;;;;86.13;33.30;;;;;;;-146.25;100.00;52380.38;2079855;28;25192;-66
2023/03/03 01:09:54;;;;;;;84.70;33.58;;;;;;;-146.25;100.00;52364.13;2088309;28;28679;-65
2023/03/03 01:11:02;;;;;;;78.53;33.03;;;;;;;-146.25;100.00;52356.03;2088229;28;31541;-66
2023/03/03 01:12:04;;;;;;;84.35;33.03;;;;;;;-146.25;100.00;52374.28;2079555;28;20042;-66
2023/03/03 01:13:07;;;;;;;77.30;32.30;;;;;;;-146.25;100.00;52374.28;2080792;28;20485;-65
2023/03/03 01:14:09;;;;;;;85.70;33.83;;;;;;;-146.25;100.00;52351.97;2088378;28;28671;-66
2023/03/03 01:15:14;;;;;;;79.05;32.97;;;;;;;-146.25;100.00;52372.25;2088105;28;27414;-66
2023/03/03 01:16:16;;;;;;;81.93;31.73;;;;;;;-146.25;100.00;52414.84;2078593;28;33229;-66
2023/03/03 01:17:18;;;;;;;83.55;33.42;;;;;;;-146.25;100.00;52390.50;2079888;28;24961;-66
2023/03/03 01:18:20;;;;;;;79.70;31.90;;;;;;;-146.25;100.00;52358.06;2079518;28;20038;-65
2023/03/03 01:19:22;;;;;;;84.80;33.47;;;;;;;-146.25;100.00;52420.91;2079891;28;20171;-66
2023/03/03 01:20:24;;;;;;;79.00;32.50;;;;;;;-146.25;100.00;52339.81;2088516;28;20038;-66
2023/03/03 01:21:26;;;;;;;83.63;33.10;;;;;;;-146.25;100.00;52404.69;2078610;28;24593;-66
2023/03/03 01:22:30;;;;;;;91.75;34.10;;;;;;;-146.25;100.00;52374.28;2079733;28;20974;-66
2023/03/03 01:23:32;;;;;;;84.53;33.72;;;;;;;-146.25;100.00;52372.25;2088464;28;20029;-66
2023/03/03 01:24:36;;;;;;;79.13;33.35;;;;;;;-146.25;100.00;52414.84;2088405;28;20037;-66
2023/03/03 01:25:40;;;;;;;81.10;33.50;;;;;;;-146.25;100.00;52368.19;2088239;28;20070;-66
2023/03/03 01:26:42;;;;;;;92.63;34.28;;;;;;;-146.25;100.00;52392.53;2088181;28;22059;-66
2023/03/03 01:27:46;;;;;;;78.53;31.92;;;;;;;-146.25;100.00;52422.94;2087906;28;20042;-66
2023/03/03 01:28:52;;;;;;;82.65;33.40;;;;;;;-146.25;100.00;52420.91;2087527;28;24925;-65
2023/03/03 01:29:55;;;;;;;78.63;32.28;;;;;;;-146.25;100.00;52380.38;2087994;28;29042;-66
2023/03/03 01:31:02;;;;;;;75.78;32.60;;;;;;;-146.25;100.00;52412.81;2079565;28;20423;-65
2023/03/03 01:32:04;;;;;;;84.47;33.17;;;;;;;-146.25;100.00;52376.31;2080337;28;20101;-66
2023/03/03 01:33:06;;;;;;;77.85;32.15;;;;;;;-146.25;100.00;52364.13;2078415;28;35110;-65
2023/03/03 01:34:08;;;;;;;67.80;29.17;;;;;;;-146.25;100.00;52412.81;2079526;28;20038;-66
2023/03/03 01:35:10;;;;;;;75.25;31.58;;;;;;;-146.25;100.00;52368.19;2087754;28;27472;-65
2023/03/03 01:36:14;;;;;;;77.10;32.47;;;;;;;-146.25;100.00;52382.38;2087406;28;28882;-66
2023/03/03 01:37:16;;;;;;;73.63;30.25;;;;;;;-146.25;100.00;52404.69;2086961;28;25492;-65
2023/03/03 01:38:17;;;;;;;77.05;32.97;;;;;;;-146.25;100.00;52398.59;2087813;28;28937;-66
2023/03/03 01:39:19;;;;;;;75.15;31.33;;;;;;;-146.25;100.00;52380.38;2088060;28;20054;-65
2023/03/03 01:40:26;;;;;;;67.95;29.63;;;;;;;-146.25;100.00;52380.38;2087895;28;28300;-65
2023/03/03 01:41:32;;;;;;;77.38;30.90;;;;;;;-146.25;100.00;52376.31;2088088;28;29216;-65
2023/03/03 01:42:34;;;;;;;74.95;31.77;;;;;;;-146.25;100.00;52380.38;2086682;28;35771;-66
2023/03/03 01:43:44;;;;;;;73.68;30.85;;;;;;;-146.25;100.00;52414.84;2087642;28;27526;-66
2023/03/03 01:44:46;;;;;;;;;;;;;;;-146.25;100.00;52414.84;2079672;28;23403;-66
2023/03/03 01:45:49;;;;;;;70.65;29.70;;;;;;;-146.25;100.00;52398.59;2080774;28;19917;-66
2023/03/03 01:47:06;;;;;;;72.35;29.92;;;;;;;-146.25;100.00;52362.13;2087592;28;34733;-66
2023/03/03 01:48:14;;;;;;;71.40;30.02;;;;;;;-146.25;100.00;52374.28;2079331;28;20145;-66
2023/03/03 01:49:32;;;;;;;65.65;28.73;;;;;;;-146.25;100.00;52392.53;2079697;28;24440;-66
2023/03/03 01:51:08;;;;;;;72.88;30.30;;;;;;;-146.25;100.00;52372.25;2088513;28;20888;-66
2023/03/03 01:52:27;;;;;;;73.90;30.73;;;;;;;-146.25;100.00;52382.38;2062076;28;27477;-65
2023/03/03 01:53:47;;;;;;;69.32;30.17;;;;;;;-146.25;100.00;52366.16;2088228;28;20802;-66
2023/03/03 01:54:56;;;;;;;67.60;30.08;;;;;;;-146.25;100.00;52376.31;2079411;28;20038;-65
2023/03/03 01:55:59;;;;;;;74.05;30.73;;;;;;;-146.25;100.00;52372.25;2082604;28;35133;-66
2023/03/03 01:57:06;;;;;;;80.22;31.98;;;;;;;-146.25;100.00;52370.22;2072040;28;20823;-66
2023/03/03 01:58:18;;;;;;;77.63;32.72;;;;;;;-146.25;100.00;52378.34;2066498;28;20055;-65
2023/03/03 01:59:25;;;;;;;73.50;31.52;;;;;;;-146.25;100.00;52376.31;2082455;28;33080;-66
2023/03/03 02:00:30;;;;;;;68.85;29.38;;;;;;;-146.25;100.00;52396.59;2081134;28;20042;-66
2023/03/03 02:01:33;;;;;;;71.63;30.13;;;;;;;-146.25;100.00;52380.38;2082935;28;20833;-66
2023/03/03 02:02:36;;;;;;;68.20;29.73;;;;;;;-146.25;100.00;52398.59;2080526;28;20046;-66
2023/03/03 02:03:38;;;;;;;68.43;29.42;;;;;;;-146.25;100.00;52362.13;2081021;28;20045;-66
2023/03/03 02:04:40;;;;;;;69.10;30.42;;;;;;;-146.25;100.00;52388.47;2080346;28;26203;-65
2023/03/03 02:05:42;;;;;;;74.00;32.47;;;;;;;-146.25;100.00;52372.25;2079905;28;30607;-66
2023/03/03 02:07:09;;;;;;;82.07;33.38;;;;;;;-146.25;100.00;52376.31;2089025;28;20050;-66
2023/03/03 02:08:17;;;;;;;66.82;30.60;;;;;;;-146.25;100.00;52390.50;2071941;28;24692;-66
2023/03/03 02:09:46;;;;;;;68.93;30.25;;;;;;;-146.25;100.00;52376.31;2069122;28;25543;-66
2023/03/03 02:10:52;;;;;;;69.32;29.67;;;;;;;-146.25;100.00;52388.47;2081464;28;20958;-66
2023/03/03 02:12:00;;;;;;;68.00;29.00;;;;;;;-146.25;100.00;52410.78;2080638;28;22821;-65
2023/03/03 02:13:01;;;;;;;68.00;30.52;;;;;;;-146.25;100.00;52384.41;2072312;28;20053;-65
2023/03/03 02:14:03;;;;;;;61.97;28.17;;;;;;;-146.25;100.00;52404.69;2072992;28;33707;-66
2023/03/03 02:15:38;;;;;;;64.20;28.98;;;;;;;-146.25;100.00;52398.59;2080586;28;20046;-66
2023/03/03 02:16:40;;;;;;;68.25;29.25;;;;;;;-146.25;100.00;52372.25;2080832;28;20046;-66
2023/03/03 02:17:43;;;;;;;61.20;28.63;;;;;;;-146.25;100.00;52378.34;2080879;28;21334;-66
2023/03/03 02:18:46;;;;;;;63.00;27.95;;;;;;;-146.25;100.00;52386.44;2080985;28;20046;-66
2023/03/03 02:20:25;;;;;;;62.13;26.55;;;;;;;-146.25;100.00;52424.97;2088627;28;20915;-66
2023/03/03 02:21:27;;;;;;;62.97;27.40;;;;;;;-146.25;100.00;52416.84;2085517;28;20247;-66
2023/03/03 02:23:08;;;;;;;66.22;29.33;;;;;;;-146.25;100.00;52384.41;2079764;28;31083;-66
2023/03/03 02:24:35;;;;;;;59.30;27.05;;;;;;;-146.25;100.00;52394.56;2085816;28;20052;-66
2023/03/03 02:25:44;;;;;;;63.25;28.15;;;;;;;-146.25;100.00;52392.53;2080239;28;25995;-66
2023/03/03 02:26:46;;;;;;;67.70;30.30;;;;;;;-146.25;100.00;52398.59;2084633;28;20034;-66
2023/03/03 02:27:48;;;;;;;63.80;28.08;;;;;;;-146.25;100.00;52382.38;2088814;28;20049;-66
2023/03/03 02:28:53;;;;;;;59.25;27.95;;;;;;;-146.25;100.00;52388.47;2088674;28;20063;-68
2023/03/03 02:29:55;;;;;;;55.63;27.35;;;;;;;-146.25;100.00;52374.28;2089262;28;20049;-66
2023/03/03 02:30:59;;;;;;;58.63;27.77;;;;;;;-146.25;100.00;52372.25;2089598;28;20041;-65
2023/03/03 02:32:01;;;;;;;58.38;26.70;;;;;;;-146.25;100.00;52360.09;2089092;28;25853;-66
2023/03/03 02:33:03;;;;;;;56.33;27.50;;;;;;;-146.25;100.00;52398.59;2080310;28;20169;-66
2023/03/03 02:34:06;;;;;;;55.10;25.95;;;;;;;-146.25;100.00;52368.19;2080405;28;23771;-66
2023/03/03 02:35:36;;;;;;;57.17;26.73;;;;;;;-146.25;100.00;52398.59;2088210;28;30221;-66
2023/03/03 02:36:38;;;;;;;59.40;25.98;;;;;;;-146.25;100.00;52427.00;2087858;28;35645;-66
2023/03/03 02:37:41;;;;;;;55.88;27.30;;;;;;;-146.25;100.00;52364.13;2088514;28;31598;-65
2023/03/03 02:39:11;;;;;;;57.15;28.33;;;;;;;-146.25;100.00;52370.22;2089565;28;20080;-66
2023/03/03 02:40:14;;;;;;;;;;;;;;;-146.25;100.00;52384.41;2080467;28;35799;-66
2023/03/03 02:41:31;;;;;;;54.45;24.17;;;;;;;-146.25;100.00;52368.19;2080451;28;22317;-66
2023/03/03 02:42:34;;;;;;;59.03;26.85;;;;;;;-146.25;100.00;52370.22;2080462;28;20807;-65
2023/03/03 02:43:56;;;;;;;60.67;26.52;;;;;;;-146.25;100.00;52402.66;2071538;28;25539;-66
2023/03/03 02:44:58;;;;;;;59.30;26.45;;;;;;;-146.25;100.00;52384.41;2075185;28;20053;-66
2023/03/03 02:46:00;;;;;;;58.10;27.98;;;;;;;-146.25;100.00;52429.03;2080484;28;28315;-66
2023/03/03 02:47:02;;;;;;;59.88;27.48;;;;;;;-146.25;100.00;52414.84;2089193;28;20151;-66
2023/03/03 02:48:04;;;;;;;55.70;26.08;;;;;;;-146.25;100.00;52386.44;2089495;28;20077;-65
2023/03/03 02:49:09;;;;;;;59.67;26.48;;;;;;;-146.25;100.00;52384.41;2089487;28;20042;-65
2023/03/03 02:50:11;;;;;;;54.35;25.08;;;;;;;-146.25;100.00;52408.75;2080642;28;20054;-66
2023/03/03 02:51:12;;;;;;;52.22;25.65;;;;;;;-146.25;100.00;52374.28;2079786;28;31835;-66
2023/03/03 02:52:16;;;;;;;54.50;25.77;;;;;;;-146.25;100.00;52424.97;2088950;28;30065;-66
2023/03/03 02:53:20;;;;;;;53.60;25.90;;;;;;;-146.25;100.00;52392.53;2088385;28;20045;-65
2023/03/03 02:54:25;;;;;;;53.70;25.77;;;;;;;-146.25;100.00;52343.88;2088731;28;20823;-66
2023/03/03 02:55:27;;;;;;;54.75;25.88;;;;;;;-146.25;100.00;52327.66;2089674;28;20030;-66
2023/03/03 02:56:29;;;;;;;54.53;25.63;;;;;;;-146.25;100.00;52378.34;2089045;28;28303;-66
2023/03/03 02:57:30;;;;;;;53.83;25.40;;;;;;;-146.25;100.00;52376.31;2089041;28;30116;-65
2023/03/03 02:58:32;;;;;;;49.40;24.10;;;;;;;-146.25;100.00;52380.38;2076547;28;20170;-66
2023/03/03 02:59:36;;;;;;;45.75;23.00;;;;;;;-146.25;100.00;52396.59;2080432;28;20042;-66
2023/03/03 03:00:46;;;;;;;45.70;22.27;;;;;;;-146.25;100.00;52380.38;2080897;28;20185;-66
2023/03/03 03:01:53;;;;;;;49.15;23.95;;;;;;;-146.25;100.00;52398.59;2072394;28;20042;-66
2023/03/03 03:02:56;;;;;;;48.65;23.38;;;;;;;-146.25;100.00;52427.00;2080128;28;20100;-66
2023/03/03 03:03:58;;;;;;;46.80;23.48;;;;;;;-146.25;100.00;52396.59;2080578;28;20057;-65
2023/03/03 03:04:59;;;;;;;48.33;23.80;;;;;;;-146.25;100.00;52400.63;2089401;28;20049;-66
2023/03/03 03:06:02;;;;;;;47.53;23.20;;;;;;;-146.25;100.00;52390.50;2088770;28;25217;-66
2023/03/03 03:07:04;;;;;;;48.55;23.60;;;;;;;-146.25;100.00;52406.72;2080388;28;20038;-66
2023/03/03 03:08:08;;;;;;;44.72;23.00;;;;;;;-146.25;100.00;52402.66;2072651;28;20192;-66
2023/03/03 03:09:12;;;;;;;46.45;22.23;;;;;;;-146.25;100.00;52396.59;2080458;28;26486;-66
2023/03/03 03:10:14;;;;;;;44.92;21.42;;;;;;;-146.25;100.00;52370.22;2089316;28;20383;-66
2023/03/03 03:11:18;;;;;;;42.38;21.23;;;;;;;-146.25;100.00;52388.47;2080207;28;20034;-66
2023/03/03 03:12:26;;;;;;;46.28;23.83;;;;;;;-146.25;100.00;52372.25;2072499;28;20141;-66
2023/03/03 03:13:32;;;;;;;46.20;22.02;;;;;;;-146.25;100.00;52380.38;2080288;28;20120;-66
2023/03/03 03:14:34;;;;;;;46.72;21.52;;;;;;;-146.25;100.00;52424.97;2080645;28;20911;-66
2023/03/03 03:15:39;;;;;;;43.35;20.38;;;;;;;-146.25;100.00;52356.03;2079977;28;20080;-66
2023/03/03 03:16:42;;;;;;;47.78;22.67;;;;;;;-146.25;100.00;52427.00;2080353;28;20045;-66
2023/03/03 03:17:44;;;;;;;43.50;21.40;;;;;;;-146.25;100.00;52390.50;2080438;28;20901;-65
2023/03/03 03:18:46;;;;;;;51.63;23.05;;;;;;;-146.25;100.00;52402.66;2080286;28;20053;-66
2023/03/03 03:19:48;;;;;;;44.80;22.85;;;;;;;-146.25;100.00;52380.38;2072133;28;20153;-65
2023/03/03 03:20:50;;;;;;;43.95;21.83;;;;;;;-146.25;100.00;52404.69;2080381;28;20049;-65
2023/03/03 03:21:52;;;;;;;47.03;21.38;;;;;;;-146.25;100.00;52376.31;2080054;28;22146;-66
2023/03/03 03:22:57;;;;;;;39.38;19.13;;;;;;;-146.25;100.00;52398.59;2080193;28;36324;-66
2023/03/03 03:23:59;;;;;;;45.85;20.65;;;;;;;-146.25;100.00;52392.53;2089248;28;20046;-66
2023/03/03 03:25:01;;;;;;;41.45;19.95;;;;;;;-146.25;100.00;52386.44;2080440;28;20030;-66
2023/03/03 03:26:05;;;;;;;42.28;20.00;;;;;;;-146.25;100.00;52398.59;2080508;28;20934;-66
2023/03/03 03:27:07;;;;;;;44.20;21.25;;;;;;;-146.25;100.00;52384.41;2080500;28;20123;-66
2023/03/03 03:28:14;;;;;;;42.80;21.23;;;;;;;-146.25;100.00;52384.41;2072142;28;20043;-65
2023/03/03 03:29:16;;;;;;;44.20;22.45;;;;;;;-146.25;100.00;52372.25;2079499;28;20058;-66
2023/03/03 03:30:19;;;;;;;42.55;21.45;;;;;;;-146.25;100.00;52386.44;2081551;28;20123;-66
2023/03/03 03:31:22;;;;;;;42.33;21.15;;;;;;;-146.25;100.00;52400.63;2071530;28;20169;-66
2023/03/03 03:32:24;;;;;;;42.28;21.08;;;;;;;-146.25;100.00;52392.53;2071943;28;20135;-66
2023/03/03 03:33:27;;;;;;;43.70;20.98;;;;;;;-146.25;100.00;52347.91;2072031;28;20529;-66
2023/03/03 03:34:30;;;;;;;41.00;20.70;;;;;;;-146.25;100.00;52388.47;2072155;28;20054;-66
2023/03/03 03:35:35;;;;;;;47.53;23.33;;;;;;;-146.25;100.00;52406.72;2080564;28;20073;-66
2023/03/03 03:36:38;;;;;;;45.17;22.10;;;;;;;-146.25;100.00;52368.19;2071940;28;20046;-66
2023/03/03 03:37:41;;;;;;;44.95;21.13;;;;;;;-146.25;100.00;52443.22;2072334;28;20852;-66
2023/03/03 03:38:45;;;;;;;41.25;20.98;;;;;;;-146.25;100.00;52380.38;2080183;28;28457;-66
2023/03/03 03:39:47;;;;;;;46.13;21.85;;;;;;;-146.25;100.00;52380.38;2079883;28;20841;-65
2023/03/03 03:40:49;;;;;;;44.05;22.15;;;;;;;-146.25;100.00;52398.59;2071816;28;22317;-66
2023/03/03 03:41:53;;;;;;;45.70;22.00;;;;;;;-146.25;100.00;52378.34;2071692;28;20043;-66
2023/03/03 03:42:55;;;;;;;49.10;22.52;;;;;;;-146.25;100.00;52406.72;2072092;28;20092;-66
2023/03/03 03:43:57;;;;;;;48.58;22.40;;;;;;;-146.25;100.00;52416.84;2063900;28;20072;-66
2023/03/03 03:44:59;;;;;;;44.78;21.67;;;;;;;-146.25;100.00;52376.31;2071683;28;20888;-66
2023/03/03 03:46:01;;;;;;;44.80;21.67;;;;;;;-146.25;100.00;52386.44;2079956;28;20050;-66
2023/03/03 03:47:04;;;;;;;45.92;21.92;;;;;;;-146.25;100.00;52335.75;2080149;28;20069;-66
2023/03/03 03:48:07;;;;;;;51.17;21.75;;;;;;;-146.25;100.00;52376.31;2080343;28;20607;-66
2023/03/03 03:49:09;;;;;;;46.10;22.08;;;;;;;-146.25;100.00;52364.13;2080152;28;21341;-66
2023/03/03 03:50:11;;;;;;;46.95;20.88;;;;;;;-146.25;100.00;52408.75;2079906;28;20041;-66
2023/03/03 03:51:13;;;;;;;46.15;20.83;;;;;;;-146.25;100.00;52412.81;2080344;28;20927;-65
2023/03/03 03:52:16;;;;;;;46.22;21.25;;;;;;;-146.25;100.00;52388.47;2079717;28;20979;-65
2023/03/03 03:53:18;;;;;;;49.47;21.17;;;;;;;-146.25;100.00;52368.19;2071410;28;28326;-65
2023/03/03 03:54:21;;;;;;;44.00;20.83;;;;;;;-146.25;100.00;52410.78;2071716;28;20109;-65
2023/03/03 03:55:23;;;;;;;43.08;19.65;;;;;;;-146.25;100.00;52388.47;2079973;28;20042;-65
2023/03/03 03:56:25;;;;;;;50.33;21.80;;;;;;;-146.25;100.00;52418.88;2080103;28;20910;-64
2023/03/03 03:57:30;;;;;;;50.20;20.77;;;;;;;-146.25;100.00;52435.09;2072131;28;20046;-66
2023/03/03 03:58:32;;;;;;;49.92;20.45;;;;;;;-146.25;100.00;52408.75;2072878;28;20843;-66
2023/03/03 03:59:37;;;;;;;51.90;20.33;;;;;;;-146.25;100.00;52431.06;2080177;28;20045;-66
2023/03/03 04:00:41;;;;;;;52.25;20.08;;;;;;;-146.25;100.00;52386.44;2079769;28;20114;-65
2023/03/03 04:01:46;;;;;;;49.90;20.67;;;;;;;-146.25;100.00;52396.59;2072442;28;20890;-66
2023/03/03 04:02:49;;;;;;;47.42;19.55;;;;;;;-146.25;100.00;52364.13;2080004;28;20087;-66
2023/03/03 04:03:52;;;;;;;45.95;19.70;;;;;;;-146.25;100.00;52358.06;2071913;28;20043;-65
2023/03/03 04:04:57;;;;;;;43.55;18.65;;;;;;;-146.25;100.00;52380.38;2072132;28;20047;-66
2023/03/03 04:05:58;;;;;;;43.35;17.35;;;;;;;-146.25;100.00;52374.28;2079554;28;29729;-65
2023/03/03 04:07:00;;;;;;;47.53;19.60;;;;;;;-146.25;100.00;52412.81;2079923;28;21014;-65
2023/03/03 04:08:03;;;;;;;45.35;19.27;;;;;;;-146.25;100.00;52372.25;2079964;28;20105;-66
2023/03/03 04:09:05;;;;;;;47.45;18.90;;;;;;;-146.25;100.00;52394.56;2079787;28;26652;-66
2023/03/03 04:10:08;;;;;;;42.75;17.67;;;;;;;-146.25;100.00;52378.34;2080150;28;20981;-65
2023/03/03 04:11:10;;;;;;;52.13;18.10;;;;;;;-146.25;100.00;52384.41;2079802;28;20042;-66
2023/03/03 04:12:12;;;;;;;55.50;19.05;;;;;;;-146.25;100.00;52392.53;2079938;28;20052;-65
2023/03/03 04:13:17;;;;;;;75.55;18.30;;;;;;;-146.25;100.00;52433.06;2080071;28;20030;-65
2023/03/03 04:14:19;;;;;;;48.35;18.25;;;;;;;-146.25;100.00;52364.13;2079486;28;20953;-65
2023/03/03 04:15:21;;;;;;;62.92;16.83;;;;;;;-146.25;100.00;52418.88;2079522;28;20034;-65
2023/03/03 04:16:23;;;;;;;59.00;18.30;;;;;;;-146.25;100.00;52362.13;2079518;28;32101;-65
2023/03/03 04:17:28;;;;;;;55.65;17.95;;;;;;;-146.25;100.00;52370.22;2080381;28;20824;-65
2023/03/03 04:18:29;;;;;;;47.60;15.63;;;;;;;-146.25;100.00;52390.50;2079274;28;20094;-65
2023/03/03 04:19:32;;;;;;;48.58;16.75;;;;;;;-146.25;100.00;52404.69;2079517;28;20136;-65
2023/03/03 04:20:34;;;;;;;48.63;17.85;;;;;;;-146.25;100.00;52366.16;2080321;28;21012;-65
2023/03/03 04:21:36;;;;;;;65.35;18.85;;;;;;;-146.25;100.00;52382.38;2079778;28;20042;-65
2023/03/03 04:22:39;;;;;;;60.83;20.00;;;;;;;-146.25;100.00;52390.50;2079752;28;20081;-65
2023/03/03 04:23:41;;;;;;;57.75;18.90;;;;;;;-146.25;100.00;52356.03;2080201;28;20038;-66
2023/03/03 04:24:42;;;;;;;47.03;17.85;;;;;;;-146.25;100.00;52400.63;2079893;28;20929;-65
2023/03/03 04:25:47;;;;;;;70.57;19.38;;;;;;;-146.25;100.00;52437.13;2071697;28;20034;-65
2023/03/03 04:26:49;;;;;;;52.47;19.65;;;;;;;-146.25;100.00;52380.38;2071911;28;20112;-65
2023/03/03 04:27:53;;;;;;;64.68;18.85;;;;;;;-146.25;100.00;52420.91;2079764;28;20038;-66
2023/03/03 04:28:58;;;;;;;56.63;19.80;;;;;;;-146.25;100.00;52376.31;2084640;28;20041;-65
2023/03/03 04:30:00;;;;;;;56.17;18.73;;;;;;;-146.25;100.00;52372.25;2088159;28;20826;-65
2023/03/03 04:31:03;;;;;;;66.63;20.08;;;;;;;-146.25;100.00;52390.50;2079801;28;20045;-66
2023/03/03 04:32:06;;;;;;;55.92;19.20;;;;;;;-146.25;100.00;52368.19;2080030;28;20046;-65
2023/03/03 04:33:08;;;;;;;50.92;18.33;;;;;;;-146.25;100.00;52388.47;2088320;28;20136;-65
2023/03/03 04:34:12;;;;;;;55.00;18.83;;;;;;;-146.25;100.00;52422.94;2079697;28;20127;-65
2023/03/03 04:35:18;;;;;;;55.03;19.30;;;;;;;-146.25;100.00;52404.69;2079445;28;20050;-65
2023/03/03 04:36:20;;;;;;;48.85;17.70;;;;;;;-146.25;100.00;52372.25;2079883;28;27652;-65
2023/03/03 04:37:22;;;;;;;56.75;18.45;;;;;;;-146.25;100.00;52388.47;2088042;28;20163;-65
2023/03/03 04:38:27;;;;;;;52.78;18.80;;;;;;;-146.25;100.00;52416.84;2079835;28;20057;-66
2023/03/03 04:39:29;;;;;;;55.35;19.60;;;;;;;-146.25;100.00;52408.75;2080334;28;20086;-65
2023/03/03 04:40:32;;;;;;;48.10;18.33;;;;;;;-146.25;100.00;52392.53;2079672;28;20842;-65
2023/03/03 04:41:35;;;;;;;50.58;17.75;;;;;;;-146.25;100.00;52406.72;2079862;28;20050;-65
2023/03/03 04:42:38;;;;;;;59.90;20.27;;;;;;;-146.25;100.00;52376.31;2079850;28;20046;-65
2023/03/03 04:43:41;;;;;;;56.05;18.75;;;;;;;-146.25;100.00;52386.44;2071508;28;20128;-65
2023/03/03 04:44:46;;;;;;;58.38;19.60;;;;;;;-146.25;100.00;52392.53;2072296;28;20042;-65
2023/03/03 04:45:48;;;;;;;67.32;20.38;;;;;;;-146.25;100.00;52370.22;2079549;28;20794;-65
2023/03/03 04:46:51;;;;;;;57.40;20.77;;;;;;;-146.25;100.00;52424.97;2079778;28;20403;-65
2023/03/03 04:47:53;;;;;;;59.03;19.00;;;;;;;-146.25;100.00;52396.59;2080008;28;20856;-65
2023/03/03 04:48:58;;;;;;;50.92;18.67;;;;;;;-146.25;100.00;52418.88;2079794;28;20050;-65
2023/03/03 04:50:01;;;;;;;54.10;18.58;;;;;;;-146.25;100.00;52378.34;2080829;28;20135;-65
2023/03/03 04:51:05;;;;;;;59.53;20.70;;;;;;;-146.25;100.00;52392.53;2079827;28;20117;-65